Pos First Name Last Name YOB Country Start
Num
Time Run
2500m
T1 Bike
19.3km
T2 Run
5km
1 Thomas Hansmaennel 2004 FRA 55 00:51:40 00:07:15 00:00:30 00:27:52 00:00:33 00:15:32
2 Toby Powers 2003 AUS 9 00:51:57 00:07:14 00:00:34 00:27:49 00:00:33 00:15:48
3 Reese Vannerson 2005 USA 60 00:52:00 00:07:14 00:00:34 00:27:52 00:00:33 00:15:49
4 Gaspard Tharreau 2004 FRA 14 00:52:16 00:07:14 00:00:30 00:27:51 00:00:35 00:16:06
5 Pablo Isotton 2004 FRA 24 00:52:17 00:07:20 00:00:35 00:27:42 00:00:36 00:16:06
6 David Lang 2005 LUX 37 00:52:18 00:07:15 00:00:33 00:27:47 00:00:33 00:16:11
7 Mathis Beaulieu 2004 CAN 16 00:52:19 00:07:13 00:00:34 00:28:07 00:00:31 00:15:56
8 Peyton Craig 2005 AUS 19 00:52:34 00:07:14 00:00:35 00:27:48 00:00:33 00:16:26
9 Andrés Prieto Villar 2003 ESP 7 00:52:42 00:07:16 00:00:31 00:27:56 00:00:38 00:16:23
10 Simeon Dolinschek 2005 AUT 53 00:52:42 00:07:19 00:00:32 00:27:44 00:00:37 00:16:32
11 João Nuno Batista 2005 POR 1 00:52:50 00:07:13 00:00:31 00:27:56 00:00:41 00:16:30
12 Balte Thijs 2003 BEL 47 00:52:54 00:07:21 00:00:32 00:27:44 00:00:36 00:16:43
13 Gyula Kovács 2004 HUN 29 00:53:01 00:07:31 00:00:32 00:27:35 00:00:36 00:16:48
14 Fabian Schönke 2003 GER 18 00:53:04 00:07:19 00:00:33 00:27:42 00:00:34 00:16:57
15 Euan De Nigro 2004 ITA 10 00:53:08 00:07:15 00:00:32 00:27:50 00:00:38 00:16:55
16 Takuto Oshima 2005 JPN 61 00:53:10 00:07:15 00:00:31 00:28:07 00:00:38 00:16:41
17 Luke Anthony 2004 USA 64 00:53:19 00:07:14 00:00:31 00:27:50 00:00:31 00:17:15
18 Antoine L'hôte 2005 SUI 39 00:53:29 00:07:16 00:00:31 00:27:56 00:00:47 00:17:00
19 Osvaldo Darell Zuñiga Fierro 2005 MEX 46 00:53:29 00:07:31 00:00:33 00:28:12 00:00:35 00:16:40
20 Niels Van Lanen 2003 NED 4 00:53:37 00:07:15 00:00:32 00:27:49 00:00:32 00:17:31
21 Andree Buc 2004 CHI 5 00:53:43 00:07:23 00:00:40 00:27:37 00:00:47 00:17:18
22 Aurelien Carre 2004 LUX 41 00:53:46 00:07:22 00:00:31 00:27:45 00:00:36 00:17:34
23 Artūrs Liepa 2003 LAT 6 00:53:54 00:07:18 00:00:30 00:27:56 00:00:35 00:17:37
24 Jack Spence 2003 RSA 3 00:53:57 00:07:32 00:00:35 00:28:17 00:00:37 00:16:59
25 Márton Kropkó 2005 HUN 43 00:53:59 00:07:24 00:00:35 00:28:20 00:00:45 00:16:57
26 Fiorenzo Angelini 2004 ITA 15 00:54:13 00:07:24 00:00:34 00:28:29 00:00:37 00:17:12
27 Miguel Guzman Tafalla 2003 ESP 31 00:54:24 00:07:16 00:00:33 00:27:49 00:00:34 00:18:15
28 Raf De Dobbelaere 2003 BEL 26 00:54:29 00:07:22 00:00:30 00:27:51 00:00:36 00:18:11
29 Amu Omuro 2004 JPN 50 00:54:30 00:07:16 00:00:31 00:28:45 00:00:37 00:17:22
30 Henry Mcmecking 2003 NZL 27 00:54:39 00:07:32 00:00:34 00:27:33 00:00:34 00:18:28
31 Nicolas Probert Vargas 2003 MEX 22 00:54:50 00:07:25 00:00:32 00:28:00 00:00:38 00:18:18
32 Oscar Lilja 2004 SWE 32 00:54:53 00:07:50 00:00:32 00:27:55 00:00:35 00:18:04
33 Andres Gras 2004 CHI 25 00:55:01 00:07:14 00:00:37 00:28:26 00:00:37 00:18:09
34 Jaspar Ortfeld 2003 GER 28 00:55:03 00:07:14 00:00:30 00:27:56 00:00:30 00:18:54
35 Fabio Nauer 2003 SUI 51 00:55:13 00:07:45 00:00:32 00:27:58 00:00:36 00:18:24
36 Jakob Von Müller 2004 GER 30 00:55:18 00:07:47 00:00:30 00:28:01 00:00:34 00:18:27
37 Ivan Abele 2003 NZL 8 00:55:27 00:07:54 00:00:33 00:27:46 00:00:44 00:18:32
38 Caleb Meistre 2003 RSA 33 00:55:38 00:07:32 00:00:35 00:28:26 00:00:40 00:18:26
39 Lars Schnider 2003 SUI 38 00:55:45 00:07:32 00:00:32 00:28:15 00:00:38 00:18:49
40 Kazushi Jozuka 2004 JPN 63 00:55:49 00:07:28 00:00:31 00:29:58 00:00:36 00:17:17
41 Miguel Espuna Larramona 2004 ITA 2 00:56:16 00:07:26 00:00:33 00:27:44 00:00:38 00:19:56
42 Hidde Mollee 2003 NED 40 00:56:17 00:07:32 00:00:33 00:28:12 00:00:40 00:19:23
43 Louis Marchand 2003 CAN 56 00:56:23 00:07:32 00:00:36 00:30:36 00:00:35 00:17:07
44 Joe Sherman 2003 GBR 20 00:56:30 00:07:42 00:00:32 00:29:19 00:00:36 00:18:23
45 Gustavo Do Canto 2004 POR 35 00:56:46 00:07:29 00:00:33 00:28:31 00:01:04 00:19:12
46 Alejandro Dominguez Romero 2003 PER 52 00:57:06 00:07:46 00:00:39 00:29:31 00:00:42 00:18:30
47 Oliver Hostrup Sahlberg 2003 DEN 23 00:57:28 00:07:32 00:00:33 00:28:15 00:00:42 00:20:29
48 Nathan Grondin 2003 CAN 62 00:58:00 00:07:30 00:00:32 00:28:23 00:00:40 00:20:57
49 Henrik Hodne Eliassen 2004 NOR 36 00:58:06 00:07:53 00:00:34 00:31:13 00:00:38 00:17:51
50 Vinicius Avi Santana 2005 BRA 54 00:58:27 00:07:44 00:00:39 00:32:02 00:00:36 00:17:28
51 Eli Mcward 2006 USA 57 00:58:32 00:07:49 00:00:32 00:27:58 00:00:35 00:21:40
52 Ben Cumberland 2003 GBR 17 00:58:55 00:07:25 00:00:37 00:29:56 00:00:37 00:20:22
53 Ul Denša 2004 SLO 42 00:59:59 00:07:53 00:00:33 00:32:50 00:00:34 00:18:10
54 Mauro Quesada Zúñiga 2003 CRC 49 01:00:34 00:07:55 00:00:35 00:31:55 00:00:44 00:19:27
55 Niel Skinner 2003 BAR 48 01:02:39 00:08:11 00:00:36 00:32:36 00:00:38 00:20:40
DNF Léo Fernandez 2003 FRA 12 DNF 00:07:21 00:00:30 00:00:00 00:00:00 00:00:00
DNF Jakob Mamič 2003 SLO 45 DNF 00:07:43 00:00:32 00:00:00 00:00:00 00:00:00
DNF Sage Sulentic 2004 CAN 58 DNF 00:07:25 00:00:37 00:00:00 00:00:00 00:00:00
DNF Christian Hattingh 2004 RSA 34 DNF 00:08:15 00:00:37 00:00:00 00:00:00 00:00:00
DNF Liam Dixon 2003 AUS 21 DNF 00:07:23 00:00:31 00:00:00 00:00:00 00:00:00
DNF Bradley Course 2004 AUS 11 DNF 00:07:14 00:00:36 00:00:00 00:00:00 00:00:00
LAP Thomas Hattee 2004 GBR 44 LAP 00:07:49 00:00:35 00:00:00 00:00:00 00:00:00
Program notes:

Technical Delegate: Steeve Espling/USA. Head Referees: Patty Petty/BER and Janice Ryan/CAN.
Competition Jury: Ulf Schuetze/CAN; Leslie Buchanan/CAN; Joe Morissette/CAN.
Air Temperature: 25ºC.
Distances: Run 2.5km (1 lap) ; Bike 19.3km (4 laps);  Run 5km (2 laps)
Athlete #61 Oshima/JPN served a 10-second penalty in the run penalty box.
Due to the water quality, this race changed to a duathlon.